createdAt,value
2022-10-31T00:00:54.813Z,23.40
2022-10-31T00:04:00.787Z,23.40
2022-10-31T00:06:56.479Z,23.40
2022-10-31T00:09:54.839Z,23.40
2022-10-31T00:12:50.541Z,23.30
2022-10-31T00:16:00.869Z,23.40
2022-10-31T00:19:08.599Z,23.30
2022-10-31T00:22:06.943Z,23.30
2022-10-31T00:25:02.657Z,23.30
2022-10-31T00:28:01.265Z,23.40
2022-10-31T00:31:02.716Z,23.30
2022-10-31T00:34:07.049Z,23.30
2022-10-31T00:37:02.770Z,23.40
2022-10-31T00:40:07.096Z,23.30
2022-10-31T00:43:08.863Z,23.30
2022-10-31T00:46:07.156Z,23.30
2022-10-31T00:49:07.180Z,23.30
2022-10-31T00:52:07.206Z,23.30
2022-10-31T00:55:02.938Z,23.30
2022-10-31T00:58:07.311Z,23.30
2022-10-31T01:01:03.170Z,23.30
2022-10-31T01:04:07.310Z,23.30
2022-10-31T01:07:01.334Z,23.30
2022-10-31T01:09:57.071Z,23.30
2022-10-31T01:12:57.344Z,23.30
2022-10-31T01:16:03.126Z,23.30
2022-10-31T01:19:14.842Z,23.30
2022-10-31T01:22:26.866Z,23.30
2022-10-31T01:25:32.895Z,23.30
2022-10-31T01:28:39.231Z,23.20
2022-10-31T01:31:44.944Z,23.30
2022-10-31T01:34:57.281Z,23.30
2022-10-31T01:38:00.951Z,23.30
2022-10-31T01:41:09.025Z,23.30
2022-10-31T01:44:25.750Z,23.30
2022-10-31T01:47:39.391Z,23.30
2022-10-31T01:51:21.422Z,23.20
2022-10-31T01:58:33.183Z,23.30
2022-10-31T02:02:03.609Z,23.30
2022-10-31T02:05:33.541Z,23.30
2022-10-31T02:09:09.573Z,23.20
2022-10-31T02:12:33.600Z,23.20
2022-10-31T02:16:09.632Z,23.20
2022-10-31T02:19:39.681Z,23.20
2022-10-31T02:23:09.379Z,23.20
2022-10-31T02:26:51.722Z,23.20
2022-10-31T02:30:33.700Z,23.20
2022-10-31T02:34:03.471Z,23.20
2022-10-31T02:37:32.872Z,23.20
2022-10-31T02:41:03.537Z,23.20
2022-10-31T02:44:21.873Z,23.20
2022-10-31T02:47:51.907Z,23.20
2022-10-31T02:59:22.196Z,23.20
2022-10-31T04:28:33.945Z,22.90
2022-10-31T04:32:02.063Z,22.90
2022-10-31T04:35:32.094Z,22.90
2022-10-31T04:39:24.165Z,22.80
2022-10-31T04:42:56.154Z,22.80
2022-10-31T04:46:38.186Z,22.90
2022-10-31T04:50:14.216Z,22.90
2022-10-31T04:53:44.246Z,22.90
2022-10-31T04:57:14.277Z,22.90
2022-10-31T05:00:18.591Z,22.90
2022-10-31T05:03:32.330Z,22.90
2022-10-31T05:06:36.320Z,22.90
2022-10-31T05:09:42.553Z,22.90
2022-10-31T05:12:44.407Z,22.90
2022-10-31T05:15:46.421Z,22.90
2022-10-31T05:18:53.949Z,22.90
2022-10-31T05:21:59.973Z,22.80
2022-10-31T05:25:04.529Z,22.80
2022-10-31T05:28:10.557Z,22.80
2022-10-31T05:31:14.559Z,22.90
2022-10-31T05:34:24.080Z,22.80
2022-10-31T05:37:28.649Z,22.80
2022-10-31T05:40:34.682Z,22.90
2022-10-31T05:43:44.665Z,22.80
2022-10-31T05:46:50.692Z,22.80
2022-10-31T05:49:58.771Z,22.80
2022-10-31T05:53:04.813Z,22.80
2022-10-31T05:56:08.772Z,22.80
2022-10-31T05:59:14.797Z,22.80
2022-10-31T06:02:24.320Z,22.80
2022-10-31T06:05:28.931Z,22.80
2022-10-31T06:08:24.061Z,22.80
2022-10-31T06:11:22.985Z,22.80
2022-10-31T06:14:18.113Z,22.80
2022-10-31T06:17:17.045Z,22.80
2022-10-31T06:20:12.469Z,22.80
2022-10-31T06:23:24.495Z,22.80
2022-10-31T06:26:24.215Z,22.80
2022-10-31T06:29:30.546Z,22.80
2022-10-31T06:32:42.576Z,22.80
2022-10-31T06:35:54.604Z,22.80
2022-10-31T06:39:06.631Z,22.80
2022-10-31T06:42:18.658Z,22.90
2022-10-31T06:45:24.683Z,22.80
2022-10-31T06:48:24.761Z,22.90
2022-10-31T06:51:30.734Z,22.90
2022-10-31T06:54:26.293Z,23.00
2022-10-31T06:57:12.473Z,23.00
2022-10-31T07:00:24.810Z,23.00
2022-10-31T07:03:30.842Z,23.00
2022-10-31T07:06:32.594Z,23.00
2022-10-31T07:09:36.586Z,23.00
2022-10-31T07:12:48.608Z,23.00
2022-10-31T07:15:51.532Z,23.00
2022-10-31T07:19:12.783Z,23.00
2022-10-31T07:22:18.821Z,23.00
2022-10-31T07:25:18.851Z,23.10
2022-10-31T07:28:30.889Z,23.00
2022-10-31T07:31:48.917Z,23.10
2022-10-31T07:35:12.951Z,23.10
2022-10-31T07:38:15.323Z,23.10
2022-10-31T07:41:21.760Z,23.10
2022-10-31T07:44:45.790Z,23.10
2022-10-31T07:52:25.116Z,23.20
2022-10-31T07:55:45.883Z,23.10
2022-10-31T07:59:07.131Z,23.10
2022-10-31T08:02:09.944Z,23.10
2022-10-31T08:05:26.651Z,23.20
2022-10-31T08:08:37.471Z,23.20
2022-10-31T08:11:37.306Z,23.20
2022-10-31T08:14:31.332Z,23.30
2022-10-31T08:17:32.377Z,23.20
2022-10-31T08:20:43.392Z,23.30
2022-10-31T08:24:01.411Z,23.30
2022-10-31T08:27:19.444Z,23.30
2022-10-31T08:38:04.608Z,23.40
2022-10-31T08:41:09.110Z,23.40
2022-10-31T08:44:43.624Z,23.40
2022-10-31T08:49:00.386Z,23.50
2022-10-31T08:52:14.625Z,23.50
2022-10-31T08:59:23.439Z,23.50
2022-10-31T09:06:01.599Z,23.60
2022-10-31T09:09:18.988Z,23.60
2022-10-31T09:12:14.717Z,23.60
2022-10-31T09:15:24.706Z,23.50
2022-10-31T09:18:18.177Z,23.60
2022-10-31T09:21:02.799Z,23.60
2022-10-31T09:24:21.988Z,23.60
2022-10-31T09:27:16.786Z,23.70
2022-10-31T09:30:50.061Z,23.60
2022-10-31T09:34:20.095Z,23.70
2022-10-31T09:37:28.774Z,23.70
2022-10-31T09:40:33.547Z,23.70
2022-10-31T09:43:57.502Z,23.70
2022-10-31T09:47:20.235Z,23.80
2022-10-31T09:50:51.569Z,23.80
2022-10-31T09:54:08.297Z,23.70
2022-10-31T09:57:32.331Z,23.80
2022-10-31T10:00:44.427Z,23.80
2022-10-31T10:03:49.507Z,23.80
2022-10-31T10:14:57.796Z,23.80
2022-10-31T10:30:02.300Z,23.90
2022-10-31T10:33:04.466Z,23.90
2022-10-31T10:35:51.971Z,23.90
2022-10-31T10:42:37.915Z,23.90
2022-10-31T10:49:10.083Z,23.70
2022-10-31T10:55:30.259Z,23.80
2022-10-31T10:58:51.478Z,23.70
2022-10-31T11:02:04.193Z,23.80
2022-10-31T11:04:58.216Z,23.80
2022-10-31T11:07:56.758Z,23.70
2022-10-31T11:10:41.507Z,23.70
2022-10-31T11:13:51.313Z,23.60
2022-10-31T11:16:57.639Z,23.40
2022-10-31T11:19:51.351Z,23.30
2022-10-31T11:22:40.366Z,23.10
2022-10-31T11:25:46.393Z,22.90
2022-10-31T11:28:51.431Z,23.00
2022-10-31T11:31:41.196Z,23.20
2022-10-31T11:34:43.540Z,23.40
2022-10-31T11:37:45.889Z,23.50
2022-10-31T11:40:55.598Z,23.60
2022-10-31T11:43:55.683Z,23.30
2022-10-31T11:46:57.898Z,23.30
2022-10-31T11:50:01.306Z,23.40
2022-10-31T11:52:49.062Z,23.40
2022-10-31T11:55:57.975Z,23.20
2022-10-31T11:58:43.437Z,23.10
2022-10-31T12:01:44.124Z,23.30
2022-10-31T12:04:57.739Z,23.10
2022-10-31T12:07:59.265Z,23.00
2022-10-31T12:11:21.430Z,23.30
2022-10-31T12:14:22.819Z,23.40
2022-10-31T12:17:28.159Z,23.20
2022-10-31T12:20:43.967Z,23.30
2022-10-31T12:23:58.216Z,23.40
2022-10-31T12:57:17.184Z,23.20
2022-10-31T13:00:17.216Z,23.10
2022-10-31T13:03:18.786Z,23.10
2022-10-31T13:06:28.593Z,22.90
2022-10-31T13:09:26.384Z,23.10
2022-10-31T13:12:12.025Z,23.20
2022-10-31T13:15:10.641Z,23.00
2022-10-31T13:18:04.698Z,23.00
2022-10-31T13:21:02.589Z,23.10
2022-10-31T13:23:53.438Z,23.10
2022-10-31T13:27:00.245Z,23.00
2022-10-31T13:30:02.568Z,23.10
2022-10-31T13:33:05.046Z,23.30
2022-10-31T13:36:12.789Z,23.30
2022-10-31T13:39:24.457Z,23.40
2022-10-31T14:56:51.335Z,24.00
2022-10-31T15:04:10.497Z,24.10
2022-10-31T15:07:36.514Z,24.10
2022-10-31T15:11:07.008Z,24.10
2022-10-31T15:38:33.558Z,24.10
2022-10-31T16:01:41.253Z,24.10
2022-10-31T16:08:20.860Z,24.10
2022-10-31T16:16:44.930Z,24.10
2022-10-31T16:20:28.540Z,24.10
2022-10-31T16:31:21.088Z,24.20
2022-10-31T16:35:15.499Z,24.20
2022-10-31T16:38:58.409Z,24.20
2022-10-31T16:49:41.062Z,24.10
2022-10-31T16:56:57.307Z,24.10
2022-10-31T17:00:21.000Z,24.10
2022-10-31T17:12:01.060Z,24.10
2022-10-31T17:19:11.474Z,24.00
2022-10-31T17:29:51.077Z,24.10
2022-10-31T17:41:01.063Z,24.00
2022-10-31T17:44:31.087Z,23.90
2022-10-31T17:52:01.050Z,23.90
2022-10-31T18:00:03.839Z,23.90
2022-10-31T18:03:51.872Z,23.90
2022-10-31T18:08:03.772Z,23.90
2022-10-31T18:11:51.944Z,23.90
2022-10-31T18:15:01.181Z,23.90
2022-10-31T18:18:10.002Z,23.90
2022-10-31T18:21:40.032Z,23.90
2022-10-31T18:24:51.039Z,23.90
2022-10-31T18:28:21.049Z,24.00
2022-10-31T18:31:46.124Z,24.00
2022-10-31T18:35:01.054Z,24.00
2022-10-31T18:38:21.047Z,24.00
2022-10-31T18:41:40.207Z,23.90
2022-10-31T18:44:51.030Z,23.80
2022-10-31T18:48:10.270Z,23.80
2022-10-31T18:51:21.029Z,23.70
2022-10-31T18:54:28.200Z,23.80
2022-10-31T18:57:31.013Z,23.80
2022-10-31T19:00:49.624Z,23.80
2022-10-31T19:04:19.623Z,23.90
2022-10-31T19:17:19.730Z,23.70
2022-10-31T19:37:25.900Z,23.60
2022-10-31T19:49:35.996Z,23.60
2022-10-31T19:53:34.021Z,23.60
2022-10-31T20:01:26.133Z,23.50
2022-10-31T20:05:02.172Z,23.50
2022-10-31T20:08:38.515Z,23.50
2022-10-31T20:12:04.095Z,23.50
2022-10-31T20:15:32.233Z,23.50
2022-10-31T20:31:14.371Z,23.50
2022-10-31T20:34:44.430Z,23.50
2022-10-31T20:38:14.424Z,23.50
2022-10-31T20:41:34.508Z,23.50
2022-10-31T20:44:59.165Z,23.40
2022-10-31T20:48:38.515Z,23.40
2022-10-31T20:52:04.963Z,23.50
2022-10-31T20:55:26.570Z,23.50
2022-10-31T20:58:56.604Z,23.40
2022-10-31T21:02:26.756Z,23.40
2022-10-31T21:06:14.668Z,23.40
2022-10-31T23:35:18.733Z,23.10
